Terminal Aerodrome Forecast
Issued by NWS

Home | Current Version | Previous Version | Text Only | Print | Product List | Glossary On
Versions: 1 2 3 4 5 6 7 8 9 10 11 12 13 14 15 16 17 18 19 20 21
000
FTUS41 KBGM 270503 AAA
TAFELM
TAF AMD
KELM 270503Z 2705/2724 VRB05KT P6SM OVC011 WS020/18035KT
     FM270600 VRB05KT 5SM -RA BR OVC008 WS020/18035KT
     FM271400 21005KT P6SM OVC015
     FM271800 25008KT P6SM BKN035=

USA.gov is the U.S. government's official web portal to all federal, state and local government web resources and services.